createdAt,value
2023-04-03T00:00:02.049Z,8.79
2023-04-03T00:02:37.235Z,8.79
2023-04-03T00:05:11.213Z,8.76
2023-04-03T00:07:44.401Z,8.71
2023-04-03T00:10:18.021Z,8.66
2023-04-03T00:12:51.845Z,8.60
2023-04-03T00:15:25.342Z,8.56
2023-04-03T00:17:59.215Z,8.50
2023-04-03T00:20:32.387Z,8.45
2023-04-03T00:23:05.920Z,8.43
2023-04-03T00:25:39.582Z,8.44
2023-04-03T00:28:13.168Z,8.45
2023-04-03T00:30:46.869Z,8.46
2023-04-03T00:33:25.763Z,8.48
2023-04-03T00:35:59.693Z,8.47
2023-04-03T00:38:34.668Z,8.48
2023-04-03T00:41:07.702Z,8.47
2023-04-03T00:43:41.036Z,8.42
2023-04-03T00:46:14.089Z,8.39
2023-04-03T00:48:51.514Z,8.38
2023-04-03T00:51:26.830Z,8.39
2023-04-03T00:54:03.510Z,8.37
2023-04-03T00:56:39.211Z,8.37
2023-04-03T00:59:19.284Z,8.35
2023-04-03T01:01:53.184Z,8.32
2023-04-03T01:04:37.480Z,8.29
2023-04-03T01:07:20.900Z,8.26
2023-04-03T01:09:57.994Z,8.23
2023-04-03T01:12:38.135Z,8.21
2023-04-03T01:15:19.220Z,8.19
2023-04-03T01:17:58.494Z,8.17
2023-04-03T01:20:55.730Z,8.18
2023-04-03T01:23:36.212Z,8.20
2023-04-03T01:26:11.046Z,8.20
2023-04-03T01:28:43.964Z,8.20
2023-04-03T01:31:35.949Z,8.20
2023-04-03T01:34:09.146Z,8.17
2023-04-03T01:36:42.575Z,8.15
2023-04-03T01:39:16.905Z,8.14
2023-04-03T01:41:50.856Z,8.13
2023-04-03T01:44:25.654Z,8.11
2023-04-03T01:46:58.719Z,8.12
2023-04-03T01:49:31.969Z,8.12
2023-04-03T01:52:05.491Z,8.12
2023-04-03T01:54:38.649Z,8.09
2023-04-03T01:57:12.195Z,8.06
2023-04-03T01:59:45.830Z,8.04
2023-04-03T02:02:18.996Z,7.98
2023-04-03T02:04:52.106Z,7.91
2023-04-03T02:07:25.886Z,7.88
2023-04-03T02:09:58.786Z,7.85
2023-04-03T02:12:31.943Z,7.81
2023-04-03T02:15:05.969Z,7.78
2023-04-03T02:17:39.192Z,7.76
2023-04-03T02:20:13.029Z,7.71
2023-04-03T02:22:46.559Z,7.66
2023-04-03T02:25:19.519Z,7.63
2023-04-03T02:27:53.031Z,7.61
2023-04-03T02:30:26.644Z,7.59
2023-04-03T02:33:00.161Z,7.60
2023-04-03T02:35:34.219Z,7.61
2023-04-03T02:38:07.518Z,7.64
2023-04-03T02:40:41.277Z,7.66
2023-04-03T02:43:14.321Z,7.68
2023-04-03T02:45:48.487Z,7.69
2023-04-03T02:48:22.668Z,7.69
2023-04-03T02:50:55.966Z,7.65
2023-04-03T02:53:28.860Z,7.61
2023-04-03T02:56:02.337Z,7.59
2023-04-03T02:58:35.751Z,7.58
2023-04-03T03:01:10.396Z,7.56
2023-04-03T03:03:43.746Z,7.55
2023-04-03T03:06:19.012Z,7.56
2023-04-03T03:08:52.700Z,7.57
2023-04-03T03:11:26.636Z,7.60
2023-04-03T03:14:00.838Z,7.61
2023-04-03T03:16:34.678Z,7.59
2023-04-03T03:19:08.010Z,7.60
2023-04-03T03:21:41.825Z,7.59
2023-04-03T03:24:16.823Z,7.57
2023-04-03T03:26:49.614Z,7.56
2023-04-03T03:29:23.541Z,7.56
2023-04-03T03:31:57.024Z,7.53
2023-04-03T03:34:30.583Z,7.54
2023-04-03T03:37:03.537Z,7.52
2023-04-03T03:39:37.083Z,7.51
2023-04-03T03:42:10.099Z,7.51
2023-04-03T03:44:43.795Z,7.53
2023-04-03T03:47:16.948Z,7.54
2023-04-03T03:49:49.915Z,7.56
2023-04-03T03:52:23.101Z,7.60
2023-04-03T03:54:56.389Z,7.63
2023-04-03T03:57:30.070Z,7.68
2023-04-03T04:00:03.052Z,7.74
2023-04-03T04:02:38.078Z,7.77
2023-04-03T04:05:11.504Z,7.77
2023-04-03T04:07:44.897Z,7.77
2023-04-03T04:10:18.966Z,7.78
2023-04-03T04:12:52.628Z,7.82
2023-04-03T04:15:28.289Z,7.83
2023-04-03T04:18:00.946Z,7.84
2023-04-03T04:20:33.973Z,7.87
2023-04-03T04:23:07.201Z,7.89
2023-04-03T04:25:40.661Z,7.95
2023-04-03T04:28:13.812Z,8.00
2023-04-03T04:30:47.543Z,8.01
2023-04-03T04:33:21.000Z,8.07
2023-04-03T04:35:55.043Z,8.09
2023-04-03T04:38:28.570Z,8.09
2023-04-03T04:41:02.425Z,8.09
2023-04-03T04:43:36.498Z,8.12
2023-04-03T04:46:14.117Z,8.14
2023-04-03T04:48:49.611Z,8.18
2023-04-03T04:51:23.409Z,8.22
2023-04-03T04:53:56.415Z,8.22
2023-04-03T04:56:29.442Z,8.22
2023-04-03T04:59:03.364Z,8.22
2023-04-03T05:01:37.076Z,8.24
2023-04-03T05:04:14.036Z,8.23
2023-04-03T05:06:47.777Z,8.23
2023-04-03T05:09:22.568Z,8.25
2023-04-03T05:11:57.526Z,8.27
2023-04-03T05:14:32.662Z,8.26
2023-04-03T05:17:07.264Z,8.29
2023-04-03T05:19:42.710Z,8.34
2023-04-03T05:22:16.349Z,8.39
2023-04-03T05:24:50.825Z,8.42
2023-04-03T05:27:25.467Z,8.45
2023-04-03T05:30:00.681Z,8.47
2023-04-03T05:32:36.248Z,8.48
2023-04-03T05:35:11.358Z,8.47
2023-04-03T05:37:45.569Z,8.49
2023-04-03T05:40:19.930Z,8.54
2023-04-03T05:42:54.813Z,8.59
2023-04-03T05:45:28.070Z,8.62
2023-04-03T05:48:03.709Z,8.67
2023-04-03T05:50:39.121Z,8.71
2023-04-03T05:53:16.961Z,8.77
2023-04-03T05:55:50.407Z,8.80
2023-04-03T05:58:24.460Z,8.81
2023-04-03T06:00:58.665Z,8.83
2023-04-03T06:03:32.387Z,8.85
2023-04-03T06:06:07.146Z,8.88
2023-04-03T06:08:41.588Z,8.93
2023-04-03T06:11:14.704Z,8.97
2023-04-03T06:13:48.266Z,9.01
2023-04-03T06:16:23.511Z,9.07
2023-04-03T06:18:57.482Z,9.11
2023-04-03T06:21:30.622Z,9.18
2023-04-03T06:24:04.835Z,9.23
2023-04-03T06:26:38.645Z,9.29
2023-04-03T06:29:12.117Z,9.34
2023-04-03T06:31:45.302Z,9.37
2023-04-03T06:34:19.390Z,9.38
2023-04-03T06:36:52.495Z,9.37
2023-04-03T06:39:28.002Z,9.35
2023-04-03T06:42:01.382Z,9.36
2023-04-03T06:44:37.068Z,9.43
2023-04-03T06:47:17.917Z,9.48
2023-04-03T06:49:50.900Z,9.52
2023-04-03T06:52:26.445Z,9.56
2023-04-03T06:55:01.642Z,9.59
2023-04-03T06:57:34.196Z,9.57
2023-04-03T07:00:09.920Z,9.56
2023-04-03T07:02:44.027Z,9.58
2023-04-03T07:05:17.224Z,9.58
2023-04-03T07:07:51.630Z,9.53
2023-04-03T07:10:24.700Z,9.51
2023-04-03T07:12:57.778Z,9.50
2023-04-03T07:15:31.467Z,9.52
2023-04-03T07:18:05.909Z,9.55
2023-04-03T07:20:40.896Z,9.56
2023-04-03T07:23:13.899Z,9.57
2023-04-03T07:25:49.649Z,9.62
2023-04-03T07:28:24.469Z,9.66
2023-04-03T07:31:09.799Z,9.67
2023-04-03T07:33:43.570Z,9.73
2023-04-03T07:36:20.625Z,9.78
2023-04-03T07:38:53.654Z,9.80
2023-04-03T07:41:27.246Z,9.81
2023-04-03T07:44:00.479Z,9.80
2023-04-03T07:46:33.975Z,9.80
2023-04-03T07:49:07.060Z,9.80
2023-04-03T07:51:41.185Z,9.82
2023-04-03T07:54:13.801Z,9.84
2023-04-03T07:56:47.870Z,9.88
2023-04-03T07:59:21.425Z,9.92
2023-04-03T08:01:54.350Z,9.95
2023-04-03T08:04:28.386Z,9.95
2023-04-03T08:07:01.735Z,9.98
2023-04-03T08:09:35.244Z,10.03
2023-04-03T08:12:08.276Z,10.06
2023-04-03T08:14:41.927Z,10.11
2023-04-03T08:17:16.178Z,10.19
2023-04-03T08:19:49.270Z,10.24
2023-04-03T08:22:24.140Z,10.31
2023-04-03T08:24:59.527Z,10.40
2023-04-03T08:27:33.052Z,10.50
2023-04-03T08:30:07.827Z,10.59
2023-04-03T08:32:42.828Z,10.65
2023-04-03T08:35:16.453Z,10.71
2023-04-03T08:37:49.527Z,10.76
2023-04-03T08:40:23.014Z,10.77
2023-04-03T08:43:07.459Z,10.75
2023-04-03T08:45:53.903Z,10.75
2023-04-03T08:48:44.822Z,10.71
2023-04-03T08:51:21.477Z,10.68
2023-04-03T08:54:02.855Z,10.68
2023-04-03T08:56:36.979Z,10.70
2023-04-03T08:59:13.717Z,10.76
2023-04-03T09:01:47.720Z,10.77
2023-04-03T09:04:21.346Z,10.78
2023-04-03T09:06:58.826Z,10.80
2023-04-03T09:12:53.797Z,10.78
2023-04-03T09:15:38.349Z,10.71
2023-04-03T09:18:19.510Z,10.68
2023-04-03T09:21:27.083Z,10.65
2023-04-03T09:24:01.845Z,10.64
2023-04-03T09:26:47.713Z,10.64
2023-04-03T09:29:26.090Z,10.64
2023-04-03T09:32:05.045Z,10.60
2023-04-03T09:34:40.188Z,10.60
2023-04-03T09:37:13.199Z,10.56
2023-04-03T09:39:58.202Z,10.50
2023-04-03T09:42:33.463Z,10.40
2023-04-03T09:45:12.412Z,10.37
2023-04-03T09:47:46.146Z,10.35
2023-04-03T09:50:24.562Z,10.35
2023-04-03T09:52:57.764Z,10.34
2023-04-03T09:55:31.339Z,10.32
2023-04-03T09:58:08.828Z,10.33
2023-04-03T10:00:44.291Z,10.33
2023-04-03T10:03:36.697Z,10.33
2023-04-03T10:06:25.541Z,10.33
2023-04-03T10:09:05.773Z,10.34
2023-04-03T10:11:39.133Z,10.31
2023-04-03T10:14:16.812Z,10.27
2023-04-03T10:17:06.191Z,10.26
2023-04-03T10:19:49.083Z,10.24
2023-04-03T10:22:49.564Z,10.26
2023-04-03T10:25:33.170Z,10.26
2023-04-03T10:28:17.518Z,10.27
2023-04-03T10:31:02.373Z,10.23
2023-04-03T10:33:46.460Z,10.21
2023-04-03T10:36:52.613Z,10.25
2023-04-03T10:39:36.394Z,10.32
2023-04-03T10:42:18.083Z,10.36
2023-04-03T10:45:17.977Z,10.38
2023-04-03T10:47:56.159Z,10.38
2023-04-03T10:50:55.464Z,10.37
2023-04-03T10:53:34.768Z,10.33
2023-04-03T10:56:30.300Z,10.32
2023-04-03T10:59:25.894Z,10.32
2023-04-03T11:02:30.419Z,10.32
2023-04-03T11:05:19.863Z,10.32
2023-04-03T11:07:56.630Z,10.34
2023-04-03T11:10:49.145Z,10.38
2023-04-03T11:13:45.718Z,10.39
2023-04-03T11:16:28.929Z,10.39
2023-04-03T11:19:24.144Z,10.38
2023-04-03T11:22:17.104Z,10.36
2023-04-03T11:24:57.772Z,10.37
2023-04-03T11:27:36.241Z,10.37
2023-04-03T11:30:13.968Z,10.35
2023-04-03T11:33:03.567Z,10.31
2023-04-03T11:35:38.134Z,10.29
2023-04-03T11:38:16.241Z,10.31
2023-04-03T11:40:51.509Z,10.37
2023-04-03T11:43:30.669Z,10.43
2023-04-03T11:46:08.282Z,10.46
2023-04-03T11:48:54.472Z,10.54
2023-04-03T11:51:40.799Z,10.62
2023-04-03T11:54:45.653Z,10.71
2023-04-03T11:58:03.114Z,10.75
2023-04-03T12:00:54.837Z,10.78
2023-04-03T12:03:32.762Z,10.84
2023-04-03T12:06:15.000Z,10.91
2023-04-03T12:08:53.864Z,10.89
2023-04-03T12:11:34.293Z,10.94
2023-04-03T12:14:14.053Z,11.00
2023-04-03T12:16:49.723Z,11.11
2023-04-03T12:19:43.253Z,11.19
2023-04-03T12:22:21.281Z,11.28
2023-04-03T12:24:56.175Z,11.36
2023-04-03T12:27:38.699Z,11.41
2023-04-03T12:30:22.908Z,11.38
2023-04-03T12:33:41.916Z,11.37
2023-04-03T12:36:28.166Z,11.39
2023-04-03T12:39:23.480Z,11.40
2023-04-03T12:42:21.851Z,11.39
2023-04-03T12:45:02.431Z,11.37
2023-04-03T12:47:39.414Z,11.27
2023-04-03T12:50:28.281Z,11.17
2023-04-03T12:53:08.593Z,11.09
2023-04-03T12:55:41.729Z,11.00
2023-04-03T12:58:27.816Z,10.96
2023-04-03T13:01:15.871Z,10.89
2023-04-03T13:03:53.860Z,10.85
2023-04-03T13:06:34.359Z,10.82
2023-04-03T13:09:09.626Z,10.81
2023-04-03T13:11:44.435Z,10.81
2023-04-03T13:14:26.450Z,10.81
2023-04-03T13:17:07.443Z,10.77
2023-04-03T13:19:43.200Z,10.73
2023-04-03T13:22:39.896Z,10.75
2023-04-03T13:25:16.600Z,10.73
2023-04-03T13:27:50.356Z,10.72
2023-04-03T13:30:26.048Z,10.71
2023-04-03T13:33:02.623Z,10.72
2023-04-03T13:35:43.807Z,10.74
2023-04-03T13:38:25.101Z,10.75
2023-04-03T13:41:05.746Z,10.72
2023-04-03T13:43:40.876Z,10.70
2023-04-03T13:46:18.778Z,10.68
2023-04-03T13:48:54.833Z,10.68
2023-04-03T13:51:31.168Z,10.68
2023-04-03T13:54:09.555Z,10.65
2023-04-03T13:56:46.360Z,10.64
2023-04-03T13:59:27.138Z,10.63
2023-04-03T14:02:25.966Z,10.64
2023-04-03T14:05:03.064Z,10.63
2023-04-03T14:07:36.663Z,10.64
2023-04-03T14:10:10.439Z,10.63
2023-04-03T14:12:43.909Z,10.61
2023-04-03T14:15:22.990Z,10.57
2023-04-03T14:17:57.862Z,10.56
2023-04-03T14:20:31.622Z,10.56
2023-04-03T14:23:04.805Z,10.56
2023-04-03T14:25:38.950Z,10.62
2023-04-03T14:28:22.063Z,10.62
2023-04-03T14:30:55.503Z,10.62
2023-04-03T14:33:30.038Z,10.61
2023-04-03T14:36:06.149Z,10.60
2023-04-03T14:38:40.301Z,10.56
2023-04-03T14:41:19.478Z,10.53
2023-04-03T14:43:54.411Z,10.49
2023-04-03T14:46:45.513Z,10.46
2023-04-03T14:49:24.328Z,10.44
2023-04-03T14:51:59.740Z,10.43
2023-04-03T14:54:33.511Z,10.45
2023-04-03T14:57:08.188Z,10.45
2023-04-03T14:59:41.764Z,10.44
2023-04-03T15:02:40.545Z,10.45
2023-04-03T15:05:15.199Z,10.44
2023-04-03T15:07:53.480Z,10.42
2023-04-03T15:10:31.241Z,10.42
2023-04-03T15:13:05.300Z,10.43
2023-04-03T15:15:40.575Z,10.43
2023-04-03T15:18:18.520Z,10.43
2023-04-03T15:20:51.855Z,10.40
2023-04-03T15:23:29.561Z,10.39
2023-04-03T15:26:02.421Z,10.40
2023-04-03T15:28:43.494Z,10.40
2023-04-03T15:31:17.101Z,10.40
2023-04-03T15:33:51.150Z,10.38
2023-04-03T15:38:58.428Z,10.32
2023-04-03T15:41:31.517Z,10.28
2023-04-03T15:44:04.653Z,10.24
2023-04-03T15:46:37.736Z,10.21
2023-04-03T15:49:10.785Z,10.18
2023-04-03T15:51:44.056Z,10.14
2023-04-03T15:54:18.262Z,10.12
2023-04-03T15:56:51.193Z,10.10
2023-04-03T15:59:24.521Z,10.06
2023-04-03T16:01:58.267Z,10.01
2023-04-03T16:04:31.565Z,9.98
2023-04-03T16:07:06.708Z,9.96
2023-04-03T16:09:40.597Z,9.93
2023-04-03T16:12:13.706Z,9.92
2023-04-03T16:14:48.408Z,9.91
2023-04-03T16:17:21.593Z,9.89
2023-04-03T16:19:55.058Z,9.88
2023-04-03T16:22:29.888Z,9.86
2023-04-03T16:25:03.600Z,9.85
2023-04-03T16:27:37.583Z,9.83
2023-04-03T16:30:11.871Z,9.81
2023-04-03T16:32:45.758Z,9.78
2023-04-03T16:35:18.917Z,9.78
2023-04-03T16:37:52.049Z,9.75
2023-04-03T16:40:24.957Z,9.71
2023-04-03T16:42:57.844Z,9.68
2023-04-03T16:45:31.317Z,9.68
2023-04-03T16:48:04.429Z,9.67
2023-04-03T16:50:38.424Z,9.70
2023-04-03T16:53:11.424Z,9.72
2023-04-03T16:55:44.691Z,9.70
2023-04-03T16:58:18.224Z,9.67
2023-04-03T17:00:52.564Z,9.65
2023-04-03T17:03:27.232Z,9.64
2023-04-03T17:06:00.747Z,9.61
2023-04-03T17:08:33.891Z,9.59
2023-04-03T17:11:06.805Z,9.56
2023-04-03T17:13:41.173Z,9.54
2023-04-03T17:16:17.014Z,9.51
2023-04-03T17:18:51.398Z,9.49
2023-04-03T17:21:25.043Z,9.48
2023-04-03T17:24:04.557Z,9.48
2023-04-03T17:26:38.418Z,9.46
2023-04-03T17:29:12.015Z,9.46
2023-04-03T17:31:44.933Z,9.44
2023-04-03T17:34:17.694Z,9.44
2023-04-03T17:36:51.451Z,9.40
2023-04-03T17:39:24.471Z,9.38
2023-04-03T17:41:57.595Z,9.38
2023-04-03T17:44:30.863Z,9.35
2023-04-03T17:47:03.820Z,9.30
2023-04-03T17:49:37.365Z,9.31
2023-04-03T17:52:10.476Z,9.33
2023-04-03T17:54:44.439Z,9.35
2023-04-03T17:57:17.668Z,9.37
2023-04-03T17:59:51.173Z,9.38
2023-04-03T18:02:24.294Z,9.38
2023-04-03T18:04:57.831Z,9.39
2023-04-03T18:07:31.186Z,9.38
2023-04-03T18:10:05.489Z,9.35
2023-04-03T18:12:38.091Z,9.34
2023-04-03T18:15:12.542Z,9.34
2023-04-03T18:17:47.562Z,9.32
2023-04-03T18:20:21.186Z,9.30
2023-04-03T18:22:54.209Z,9.30
2023-04-03T18:25:27.089Z,9.26
2023-04-03T18:28:01.813Z,9.24
2023-04-03T18:30:35.943Z,9.23
2023-04-03T18:33:09.579Z,9.27
2023-04-03T18:35:43.063Z,9.29
2023-04-03T18:38:16.483Z,9.31
2023-04-03T18:40:50.425Z,9.32
2023-04-03T18:43:23.493Z,9.30
2023-04-03T18:45:56.660Z,9.24
2023-04-03T18:48:31.207Z,9.19
2023-04-03T18:51:06.400Z,9.17
2023-04-03T18:56:14.577Z,9.12
2023-04-03T18:58:48.042Z,9.10
2023-04-03T19:01:21.912Z,9.08
2023-04-03T19:03:56.404Z,9.05
2023-04-03T19:06:29.418Z,9.06
2023-04-03T19:09:05.163Z,9.05
2023-04-03T19:11:38.442Z,9.04
2023-04-03T19:14:16.797Z,9.02
2023-04-03T19:16:47.432Z,9.00
2023-04-03T19:19:21.004Z,8.97
2023-04-03T19:21:55.688Z,8.99
2023-04-03T19:24:29.071Z,9.03
2023-04-03T19:27:02.629Z,9.07
2023-04-03T19:29:36.874Z,9.11
2023-04-03T19:32:12.009Z,9.13
2023-04-03T19:34:44.998Z,9.17
2023-04-03T19:37:19.747Z,9.21
2023-04-03T19:39:53.113Z,9.22
2023-04-03T19:42:28.349Z,9.20
2023-04-03T19:45:02.378Z,9.19
2023-04-03T19:47:35.732Z,9.18
2023-04-03T19:50:09.725Z,9.13
2023-04-03T19:52:42.766Z,9.10
2023-04-03T19:55:15.762Z,9.06
2023-04-03T19:57:49.240Z,8.99
2023-04-03T20:00:22.800Z,8.93
2023-04-03T20:02:56.523Z,8.85
2023-04-03T20:05:29.986Z,8.79
2023-04-03T20:08:03.019Z,8.74
2023-04-03T20:10:37.669Z,8.68
2023-04-03T20:13:14.161Z,8.62
2023-04-03T20:15:47.918Z,8.60
2023-04-03T20:18:22.899Z,8.54
2023-04-03T20:20:59.689Z,8.52
2023-04-03T20:23:34.385Z,8.50
2023-04-03T20:26:15.469Z,8.48
2023-04-03T20:28:44.125Z,8.45
2023-04-03T20:31:18.263Z,8.45
2023-04-03T20:33:52.100Z,8.45
2023-04-03T20:36:26.826Z,8.41
2023-04-03T20:38:59.925Z,8.39
2023-04-03T20:41:35.026Z,8.36
2023-04-03T20:44:10.596Z,8.33
2023-04-03T20:49:18.576Z,8.38
2023-04-03T20:51:52.326Z,8.38
2023-04-03T20:54:25.425Z,8.36
2023-04-03T20:56:59.251Z,8.34
2023-04-03T20:59:34.004Z,8.36
2023-04-03T21:02:07.219Z,8.37
2023-04-03T21:04:46.735Z,8.39
2023-04-03T21:08:16.081Z,8.37
2023-04-03T21:11:44.168Z,8.34
2023-04-03T21:15:14.006Z,8.36
2023-04-03T21:18:12.867Z,8.36
2023-04-03T21:20:47.692Z,8.37
2023-04-03T21:23:21.074Z,8.36
2023-04-03T21:25:53.859Z,8.34
2023-04-03T21:28:27.584Z,8.34
2023-04-03T21:31:00.384Z,8.33
2023-04-03T21:33:33.912Z,8.35
2023-04-03T21:36:07.995Z,8.36
2023-04-03T21:38:40.968Z,8.38
2023-04-03T21:41:13.680Z,8.39
2023-04-03T21:43:48.174Z,8.41
2023-04-03T21:46:21.875Z,8.41
2023-04-03T21:48:58.156Z,8.40
2023-04-03T21:51:32.095Z,8.42
2023-04-03T21:54:04.317Z,8.41
2023-04-03T21:56:37.129Z,8.44
2023-04-03T21:59:10.782Z,8.45
2023-04-03T22:01:44.002Z,8.45
2023-04-03T22:04:17.569Z,8.46
2023-04-03T22:06:51.222Z,8.45
2023-04-03T22:09:24.312Z,8.46
2023-04-03T22:11:57.426Z,8.49
2023-04-03T22:14:31.765Z,8.53
2023-04-03T22:17:06.034Z,8.56
2023-04-03T22:19:39.396Z,8.59
2023-04-03T22:22:13.356Z,8.60
2023-04-03T22:24:46.692Z,8.63
2023-04-03T22:27:19.522Z,8.64
2023-04-03T22:29:52.439Z,8.66
2023-04-03T22:32:25.301Z,8.69
2023-04-03T22:35:00.377Z,8.72
2023-04-03T22:37:32.323Z,8.72
2023-04-03T22:40:06.405Z,8.66
2023-04-03T22:42:40.126Z,8.63
2023-04-03T22:45:13.013Z,8.61
2023-04-03T22:47:48.224Z,8.60
2023-04-03T22:50:21.148Z,8.60
2023-04-03T22:52:54.288Z,8.58
2023-04-03T22:55:28.012Z,8.57
2023-04-03T22:58:01.908Z,8.58
2023-04-03T23:00:35.914Z,8.59
2023-04-03T23:03:09.663Z,8.57
2023-04-03T23:05:43.446Z,8.57
2023-04-03T23:08:17.147Z,8.55
2023-04-03T23:10:51.446Z,8.54
2023-04-03T23:13:25.822Z,8.56
2023-04-03T23:16:02.023Z,8.53
2023-04-03T23:18:37.084Z,8.53
2023-04-03T23:21:10.595Z,8.51
2023-04-03T23:23:44.793Z,8.49
2023-04-03T23:26:17.752Z,8.50
2023-04-03T23:28:51.103Z,8.50
2023-04-03T23:31:25.719Z,8.49
2023-04-03T23:33:58.830Z,8.50
2023-04-03T23:36:32.194Z,8.51
2023-04-03T23:39:05.318Z,8.52
2023-04-03T23:41:38.744Z,8.52
2023-04-03T23:44:11.546Z,8.51
2023-04-03T23:46:44.545Z,8.50
2023-04-03T23:49:17.684Z,8.50
2023-04-03T23:51:50.499Z,8.50
2023-04-03T23:54:23.466Z,8.50
2023-04-03T23:56:56.852Z,8.53
2023-04-03T23:59:31.283Z,8.52
